Budapest Bridge — VRIZ5 — position and weather

sailwx.info

Track history (hours):
 
Tides and Currents Weather Stations Pressure Air Temp Water Temp Dewpoint Dewpoint Depression Visibility Wind Speed Wind Dir Waves Ship Positions

Budapest Bridge

Last reported at 2015-May-21 10:33 UTC. Time now 2015-May-24 07:18 UTC.
Position N 01°20' E 104°23'.

Length 268 m; draft 11 m.

Type: Cargo ship. MMSI: 477434200.

Date/timePositionNaut miles runAvg speedWind from/ knotsBaromVisibWave heightAir tempDewpointWater temp
2015-May-21 10:33N 01°20' E 104°23'1514.9
2015-May-21 09:33N 01°15' E 104°09'1515.5
2015-May-21 08:33N 01°12' E 103°54'8 8.5
2015-May-21 07:33N 01°16' E 103°46'1 1.0
2015-May-21 06:32N 01°17' E 103°47'0 0.0
2015-May-21 05:32N 01°17' E 103°47'0 0.0
2015-May-21 04:32N 01°17' E 103°47'0 0.0
2015-May-21 03:32N 01°17' E 103°47'0 0.0
2015-May-21 02:32N 01°17' E 103°47'0 0.0
2015-May-21 01:32N 01°17' E 103°47'0 0.0
2015-May-21 00:32N 01°17' E 103°47'0 0.0
2015-May-20 23:32N 01°17' E 103°47'0 0.0
2015-May-20 22:32N 01°17' E 103°47'0 0.0
2015-May-20 21:32N 01°17' E 103°47'0 0.0
2015-May-20 20:32N 01°17' E 103°47'0 0.0
2015-May-20 19:32N 01°17' E 103°47'0 0.0
2015-May-20 18:32N 01°17' E 103°47'0 0.0
2015-May-20 17:32N 01°17' E 103°47'2 2.0
2015-May-20 16:33N 01°15' E 103°47'4 4.4
2015-May-20 15:33N 01°15' E 103°51'1 0.7
2015-May-20 14:31N 01°16' E 103°51'0 0.0
2015-May-20 13:19N 01°16' E 103°51'0 0.0
2015-May-20 12:31N 01°16' E 103°51'0 0.0
2015-May-20 11:31N 01°16' E 103°51'0 0.0
2015-May-20 10:25N 01°16' E 103°51'0 0.0
2015-May-20 09:31N 01°16' E 103°51'0 0.0
2015-May-20 08:19N 01°16' E 103°51'0 0.0
2015-May-20 07:31N 01°16' E 103°51'0 0.0
2015-May-20 06:31N 01°16' E 103°51'0 0.0
2015-May-20 05:25N 01°16' E 103°51'0 0.0
2015-May-20 04:31N 01°16' E 103°51'0 0.0
2015-May-20 03:25N 01°16' E 103°51'0 0.0
2015-May-20 02:31N 01°16' E 103°51'0 0.0
2015-May-20 01:28N 01°16' E 103°51'0 0.0
2015-May-20 00:25N 01°16' E 103°51'0 0.0
2015-May-19 23:31N 01°16' E 103°51'0 0.0
2015-May-19 22:31N 01°16' E 103°51'0 0.0
2015-May-19 21:31N 01°16' E 103°51'0 0.0
2015-May-19 20:22N 01°16' E 103°51'0 0.0
2015-May-19 19:31N 01°16' E 103°51'0 0.0
2015-May-19 18:31N 01°16' E 103°51'0 0.0
2015-May-19 17:31N 01°16' E 103°51'0 0.0
2015-May-19 16:25N 01°16' E 103°51'1 1.5
2015-May-19 15:33N 01°15' E 103°52'6 6.1
2015-May-19 14:33N 01°15' E 103°58'1212.2
2015-May-19 13:33N 01°17' E 104°10'  
2015-May-14 09:29N 01°18' E 104°21'1818.9
2015-May-14 08:34N 01°14' E 104°04'1312.5
2015-May-14 07:33N 01°15' E 103°51'1 0.7
2015-May-14 06:26N 01°16' E 103°51'0 0.0
2015-May-14 05:26N 01°16' E 103°51'0 0.0
2015-May-14 04:32N 01°16' E 103°51'0 0.0
2015-May-14 03:32N 01°16' E 103°51'0 0.0
2015-May-14 02:32N 01°16' E 103°51'0 0.0
2015-May-14 01:32N 01°16' E 103°51'0 0.0
2015-May-14 00:32N 01°16' E 103°51'0 0.0
2015-May-13 23:32N 01°16' E 103°51'0 0.0
2015-May-13 22:29N 01°16' E 103°51'0 0.0
2015-May-13 21:29N 01°16' E 103°51'0 0.0
2015-May-13 20:32N 01°16' E 103°51'0 0.0
2015-May-13 19:32N 01°16' E 103°51'0 0.0
2015-May-13 18:32N 01°16' E 103°51'0 0.0
2015-May-13 17:33N 01°16' E 103°51'3 3.1
2015-May-13 16:33N 01°13' E 103°52'6 6.0
2015-May-13 15:30N 01°16' E 103°46'0 0.0
2015-May-13 14:30N 01°16' E 103°46'0 0.0
2015-May-13 13:30N 01°16' E 103°46'0 0.0
2015-May-13 12:30N 01°16' E 103°46'0 0.0
2015-May-13 11:30N 01°16' E 103°46'0 0.0
2015-May-13 10:30N 01°16' E 103°46'0 0.0
2015-May-13 09:30N 01°16' E 103°46'0 0.0
2015-May-13 08:33N 01°16' E 103°46'0 0.0
2015-May-13 07:30N 01°16' E 103°46'0 0.0
2015-May-13 06:30N 01°16' E 103°46'0 0.0
2015-May-13 05:33N 01°16' E 103°46'0 0.0
2015-May-13 04:30N 01°16' E 103°46'0 0.0
2015-May-13 03:33N 01°16' E 103°46'0 0.0
2015-May-13 02:33N 01°16' E 103°46'0 0.1
2015-May-13 01:33N 01°16' E 103°46'0 0.1
2015-May-13 00:33N 01°16' E 103°46'0 0.0
2015-May-12 23:30N 01°16' E 103°46'0 0.0
2015-May-12 22:33N 01°16' E 103°46'0 0.0
2015-May-12 21:33N 01°16' E 103°46'0 0.0
2015-May-12 20:30N 01°16' E 103°46'3 3.2
2015-May-12 19:33N 01°14' E 103°48'1110.8
2015-May-12 18:33N 01°15' E 103°58'1817.3
2015-May-12 17:30N 01°18' E 104°16'  
Track history (hours):
 
Tides and Currents Weather Stations Pressure Air Temp Water Temp Dewpoint Dewpoint Depression Visibility Wind Speed Wind Dir Waves Ship Positions

Budapest Bridge

Last reported at 2015-May-21 10:33 UTC. Time now 2015-May-24 07:18 UTC.
Position N 01°20' E 104°23'.

Length 268 m; draft 11 m.

Type: Cargo ship. MMSI: 477434200.

Date/timePositionNaut miles runAvg speedWind from/ knotsBaromVisibWave heightAir tempDewpointWater temp
2015-May-21 10:33N 01°20' E 104°23'1514.9
2015-May-21 09:33N 01°15' E 104°09'1515.5
2015-May-21 08:33N 01°12' E 103°54'8 8.5
2015-May-21 07:33N 01°16' E 103°46'1 1.0
2015-May-21 06:32N 01°17' E 103°47'0 0.0
2015-May-21 05:32N 01°17' E 103°47'0 0.0
2015-May-21 04:32N 01°17' E 103°47'0 0.0
2015-May-21 03:32N 01°17' E 103°47'0 0.0
2015-May-21 02:32N 01°17' E 103°47'0 0.0
2015-May-21 01:32N 01°17' E 103°47'0 0.0
2015-May-21 00:32N 01°17' E 103°47'0 0.0
2015-May-20 23:32N 01°17' E 103°47'0 0.0
2015-May-20 22:32N 01°17' E 103°47'0 0.0
2015-May-20 21:32N 01°17' E 103°47'0 0.0
2015-May-20 20:32N 01°17' E 103°47'0 0.0
2015-May-20 19:32N 01°17' E 103°47'0 0.0
2015-May-20 18:32N 01°17' E 103°47'0 0.0
2015-May-20 17:32N 01°17' E 103°47'2 2.0
2015-May-20 16:33N 01°15' E 103°47'4 4.4
2015-May-20 15:33N 01°15' E 103°51'1 0.7
2015-May-20 14:31N 01°16' E 103°51'0 0.0
2015-May-20 13:19N 01°16' E 103°51'0 0.0
2015-May-20 12:31N 01°16' E 103°51'0 0.0
2015-May-20 11:31N 01°16' E 103°51'0 0.0
2015-May-20 10:25N 01°16' E 103°51'0 0.0
2015-May-20 09:31N 01°16' E 103°51'0 0.0
2015-May-20 08:19N 01°16' E 103°51'0 0.0
2015-May-20 07:31N 01°16' E 103°51'0 0.0
2015-May-20 06:31N 01°16' E 103°51'0 0.0
2015-May-20 05:25N 01°16' E 103°51'0 0.0
2015-May-20 04:31N 01°16' E 103°51'0 0.0
2015-May-20 03:25N 01°16' E 103°51'0 0.0
2015-May-20 02:31N 01°16' E 103°51'0 0.0
2015-May-20 01:28N 01°16' E 103°51'0 0.0
2015-May-20 00:25N 01°16' E 103°51'0 0.0
2015-May-19 23:31N 01°16' E 103°51'0 0.0
2015-May-19 22:31N 01°16' E 103°51'0 0.0
2015-May-19 21:31N 01°16' E 103°51'0 0.0
2015-May-19 20:22N 01°16' E 103°51'0 0.0
2015-May-19 19:31N 01°16' E 103°51'0 0.0
2015-May-19 18:31N 01°16' E 103°51'0 0.0
2015-May-19 17:31N 01°16' E 103°51'0 0.0
2015-May-19 16:25N 01°16' E 103°51'1 1.5
2015-May-19 15:33N 01°15' E 103°52'6 6.1
2015-May-19 14:33N 01°15' E 103°58'1212.2
2015-May-19 13:33N 01°17' E 104°10'  
2015-May-14 09:29N 01°18' E 104°21'1818.9
2015-May-14 08:34N 01°14' E 104°04'1312.5
2015-May-14 07:33N 01°15' E 103°51'1 0.7
2015-May-14 06:26N 01°16' E 103°51'0 0.0
2015-May-14 05:26N 01°16' E 103°51'0 0.0
2015-May-14 04:32N 01°16' E 103°51'0 0.0
2015-May-14 03:32N 01°16' E 103°51'0 0.0
2015-May-14 02:32N 01°16' E 103°51'0 0.0
2015-May-14 01:32N 01°16' E 103°51'0 0.0
2015-May-14 00:32N 01°16' E 103°51'0 0.0
2015-May-13 23:32N 01°16' E 103°51'0 0.0
2015-May-13 22:29N 01°16' E 103°51'0 0.0
2015-May-13 21:29N 01°16' E 103°51'0 0.0
2015-May-13 20:32N 01°16' E 103°51'0 0.0
2015-May-13 19:32N 01°16' E 103°51'0 0.0
2015-May-13 18:32N 01°16' E 103°51'0 0.0
2015-May-13 17:33N 01°16' E 103°51'3 3.1
2015-May-13 16:33N 01°13' E 103°52'6 6.0
2015-May-13 15:30N 01°16' E 103°46'0 0.0
2015-May-13 14:30N 01°16' E 103°46'0 0.0
2015-May-13 13:30N 01°16' E 103°46'0 0.0
2015-May-13 12:30N 01°16' E 103°46'0 0.0
2015-May-13 11:30N 01°16' E 103°46'0 0.0
2015-May-13 10:30N 01°16' E 103°46'0 0.0
2015-May-13 09:30N 01°16' E 103°46'0 0.0
2015-May-13 08:33N 01°16' E 103°46'0 0.0
2015-May-13 07:30N 01°16' E 103°46'0 0.0
2015-May-13 06:30N 01°16' E 103°46'0 0.0
2015-May-13 05:33N 01°16' E 103°46'0 0.0
2015-May-13 04:30N 01°16' E 103°46'0 0.0
2015-May-13 03:33N 01°16' E 103°46'0 0.0
2015-May-13 02:33N 01°16' E 103°46'0 0.1
2015-May-13 01:33N 01°16' E 103°46'0 0.1
2015-May-13 00:33N 01°16' E 103°46'0 0.0
2015-May-12 23:30N 01°16' E 103°46'0 0.0
2015-May-12 22:33N 01°16' E 103°46'0 0.0
2015-May-12 21:33N 01°16' E 103°46'0 0.0
2015-May-12 20:30N 01°16' E 103°46'3 3.2
2015-May-12 19:33N 01°14' E 103°48'1110.8
2015-May-12 18:33N 01°15' E 103°58'1817.3
2015-May-12 17:30N 01°18' E 104°16'  

Dump ship's entire track history